sensor_id;sensor_type;location;lat;lon;timestamp;P1;durP1;ratioP1;P2;durP2;ratioP2
17606;SDS011;8922;52.240;20.980;2022-10-26T00:01:31;17.47;;;13.53;;
17606;SDS011;8922;52.240;20.980;2022-10-26T00:03:57;18.73;;;13.20;;
17606;SDS011;8922;52.240;20.980;2022-10-26T00:06:24;17.73;;;13.63;;
17606;SDS011;8922;52.240;20.980;2022-10-26T00:08:53;19.70;;;13.23;;
17606;SDS011;8922;52.240;20.980;2022-10-26T00:11:21;19.33;;;12.63;;
17606;SDS011;8922;52.240;20.980;2022-10-26T00:13:49;17.17;;;12.73;;
17606;SDS011;8922;52.240;20.980;2022-10-26T00:16:16;16.17;;;12.47;;
17606;SDS011;8922;52.240;20.980;2022-10-26T00:18:47;16.40;;;13.70;;
17606;SDS011;8922;52.240;20.980;2022-10-26T00:21:14;25.73;;;13.50;;
17606;SDS011;8922;52.240;20.980;2022-10-26T00:23:41;17.60;;;13.63;;
17606;SDS011;8922;52.240;20.980;2022-10-26T00:26:08;21.33;;;13.53;;
17606;SDS011;8922;52.240;20.980;2022-10-26T00:28:35;16.63;;;12.93;;
17606;SDS011;8922;52.240;20.980;2022-10-26T00:31:02;17.53;;;13.90;;
17606;SDS011;8922;52.240;20.980;2022-10-26T00:33:30;18.70;;;13.70;;
17606;SDS011;8922;52.240;20.980;2022-10-26T00:35:58;18.23;;;14.23;;
17606;SDS011;8922;52.240;20.980;2022-10-26T00:38:25;16.63;;;14.17;;
17606;SDS011;8922;52.240;20.980;2022-10-26T00:40:52;18.93;;;14.87;;
17606;SDS011;8922;52.240;20.980;2022-10-26T00:43:35;17.03;;;14.40;;
17606;SDS011;8922;52.240;20.980;2022-10-26T00:46:04;17.77;;;14.00;;
17606;SDS011;8922;52.240;20.980;2022-10-26T00:48:35;18.07;;;13.37;;
17606;SDS011;8922;52.240;20.980;2022-10-26T00:51:08;20.93;;;13.80;;
17606;SDS011;8922;52.240;20.980;2022-10-26T00:53:38;19.50;;;14.30;;
17606;SDS011;8922;52.240;20.980;2022-10-26T00:56:05;17.83;;;13.80;;
17606;SDS011;8922;52.240;20.980;2022-10-26T00:58:33;18.53;;;14.50;;
17606;SDS011;8922;52.240;20.980;2022-10-26T01:01:00;19.07;;;14.93;;
17606;SDS011;8922;52.240;20.980;2022-10-26T01:03:27;17.77;;;14.03;;
17606;SDS011;8922;52.240;20.980;2022-10-26T01:05:55;17.87;;;14.10;;
17606;SDS011;8922;52.240;20.980;2022-10-26T01:08:24;17.10;;;13.83;;
17606;SDS011;8922;52.240;20.980;2022-10-26T01:10:52;18.53;;;15.07;;
17606;SDS011;8922;52.240;20.980;2022-10-26T01:13:20;17.43;;;14.70;;
17606;SDS011;8922;52.240;20.980;2022-10-26T01:15:49;29.50;;;14.83;;
17606;SDS011;8922;52.240;20.980;2022-10-26T01:18:24;19.27;;;14.53;;
17606;SDS011;8922;52.240;20.980;2022-10-26T01:24:10;18.33;;;14.07;;
17606;SDS011;8922;52.240;20.980;2022-10-26T01:27:03;20.93;;;13.70;;
17606;SDS011;8922;52.240;20.980;2022-10-26T01:29:55;22.40;;;14.40;;
17606;SDS011;8922;52.240;20.980;2022-10-26T01:32:59;18.17;;;13.97;;
17606;SDS011;8922;52.240;20.980;2022-10-26T01:35:59;20.27;;;14.13;;
17606;SDS011;8922;52.240;20.980;2022-10-26T01:38:32;21.47;;;15.57;;
17606;SDS011;8922;52.240;20.980;2022-10-26T01:41:07;20.03;;;15.07;;
17606;SDS011;8922;52.240;20.980;2022-10-26T01:43:38;16.07;;;14.07;;
17606;SDS011;8922;52.240;20.980;2022-10-26T01:46:08;19.17;;;14.97;;
17606;SDS011;8922;52.240;20.980;2022-10-26T01:48:37;18.63;;;14.77;;
17606;SDS011;8922;52.240;20.980;2022-10-26T01:51:06;21.43;;;15.30;;
17606;SDS011;8922;52.240;20.980;2022-10-26T01:53:36;17.77;;;13.90;;
17606;SDS011;8922;52.240;20.980;2022-10-26T01:56:09;16.57;;;13.37;;
17606;SDS011;8922;52.240;20.980;2022-10-26T02:04:56;23.17;;;14.37;;
17606;SDS011;8922;52.240;20.980;2022-10-26T02:07:36;18.87;;;15.47;;
17606;SDS011;8922;52.240;20.980;2022-10-26T02:10:15;18.27;;;14.77;;
17606;SDS011;8922;52.240;20.980;2022-10-26T02:12:50;23.27;;;15.37;;
17606;SDS011;8922;52.240;20.980;2022-10-26T02:15:30;21.90;;;16.03;;
17606;SDS011;8922;52.240;20.980;2022-10-26T02:18:04;20.87;;;16.17;;
17606;SDS011;8922;52.240;20.980;2022-10-26T02:20:41;24.13;;;16.83;;
17606;SDS011;8922;52.240;20.980;2022-10-26T02:23:11;22.23;;;17.00;;
17606;SDS011;8922;52.240;20.980;2022-10-26T02:25:41;22.43;;;17.60;;
17606;SDS011;8922;52.240;20.980;2022-10-26T02:28:13;21.33;;;17.60;;
17606;SDS011;8922;52.240;20.980;2022-10-26T02:30:42;23.17;;;18.90;;
17606;SDS011;8922;52.240;20.980;2022-10-26T02:33:12;24.03;;;18.93;;
17606;SDS011;8922;52.240;20.980;2022-10-26T02:35:42;25.53;;;19.23;;
17606;SDS011;8922;52.240;20.980;2022-10-26T02:38:13;25.27;;;17.47;;
17606;SDS011;8922;52.240;20.980;2022-10-26T02:40:44;26.53;;;18.20;;
17606;SDS011;8922;52.240;20.980;2022-10-26T02:43:13;25.80;;;18.43;;
17606;SDS011;8922;52.240;20.980;2022-10-26T02:45:46;21.93;;;16.57;;
17606;SDS011;8922;52.240;20.980;2022-10-26T02:48:17;22.73;;;16.80;;
17606;SDS011;8922;52.240;20.980;2022-10-26T02:50:49;24.13;;;17.23;;
17606;SDS011;8922;52.240;20.980;2022-10-26T02:53:22;20.40;;;16.30;;
17606;SDS011;8922;52.240;20.980;2022-10-26T02:55:50;19.60;;;16.17;;
17606;SDS011;8922;52.240;20.980;2022-10-26T02:58:18;24.10;;;15.80;;
17606;SDS011;8922;52.240;20.980;2022-10-26T03:00:49;19.80;;;16.33;;
17606;SDS011;8922;52.240;20.980;2022-10-26T03:03:17;20.43;;;17.03;;
17606;SDS011;8922;52.240;20.980;2022-10-26T03:05:46;19.83;;;15.67;;
17606;SDS011;8922;52.240;20.980;2022-10-26T03:08:13;20.77;;;15.10;;
17606;SDS011;8922;52.240;20.980;2022-10-26T03:10:40;20.77;;;15.17;;
17606;SDS011;8922;52.240;20.980;2022-10-26T03:13:08;19.30;;;15.23;;
17606;SDS011;8922;52.240;20.980;2022-10-26T03:15:36;22.47;;;15.73;;
17606;SDS011;8922;52.240;20.980;2022-10-26T03:18:03;21.83;;;17.13;;
17606;SDS011;8922;52.240;20.980;2022-10-26T03:20:31;20.40;;;16.53;;
17606;SDS011;8922;52.240;20.980;2022-10-26T03:22:59;25.53;;;17.20;;
17606;SDS011;8922;52.240;20.980;2022-10-26T03:25:26;22.07;;;16.83;;
17606;SDS011;8922;52.240;20.980;2022-10-26T03:27:56;26.07;;;17.33;;
17606;SDS011;8922;52.240;20.980;2022-10-26T03:30:23;19.77;;;15.93;;
17606;SDS011;8922;52.240;20.980;2022-10-26T03:32:50;23.10;;;17.70;;
17606;SDS011;8922;52.240;20.980;2022-10-26T03:35:17;19.77;;;15.97;;
17606;SDS011;8922;52.240;20.980;2022-10-26T03:37:44;24.43;;;16.33;;
17606;SDS011;8922;52.240;20.980;2022-10-26T03:40:12;23.97;;;16.10;;
17606;SDS011;8922;52.240;20.980;2022-10-26T03:42:39;24.60;;;17.47;;
17606;SDS011;8922;52.240;20.980;2022-10-26T03:45:06;24.77;;;17.30;;
17606;SDS011;8922;52.240;20.980;2022-10-26T03:47:39;24.80;;;17.10;;
17606;SDS011;8922;52.240;20.980;2022-10-26T03:50:08;20.97;;;16.97;;
17606;SDS011;8922;52.240;20.980;2022-10-26T03:52:35;27.90;;;17.70;;
17606;SDS011;8922;52.240;20.980;2022-10-26T03:55:02;24.07;;;16.57;;
17606;SDS011;8922;52.240;20.980;2022-10-26T03:57:30;20.87;;;16.27;;
17606;SDS011;8922;52.240;20.980;2022-10-26T03:59:57;25.07;;;16.87;;
17606;SDS011;8922;52.240;20.980;2022-10-26T04:02:24;23.87;;;17.30;;
17606;SDS011;8922;52.240;20.980;2022-10-26T04:04:51;22.87;;;16.00;;
17606;SDS011;8922;52.240;20.980;2022-10-26T04:07:17;24.30;;;18.10;;
17606;SDS011;8922;52.240;20.980;2022-10-26T04:09:44;22.83;;;16.73;;
17606;SDS011;8922;52.240;20.980;2022-10-26T04:12:11;25.43;;;17.57;;
17606;SDS011;8922;52.240;20.980;2022-10-26T04:14:39;24.73;;;17.00;;
17606;SDS011;8922;52.240;20.980;2022-10-26T04:17:05;24.27;;;17.57;;
17606;SDS011;8922;52.240;20.980;2022-10-26T04:19:32;24.30;;;16.97;;
17606;SDS011;8922;52.240;20.980;2022-10-26T04:21:59;21.07;;;15.90;;
17606;SDS011;8922;52.240;20.980;2022-10-26T04:24:26;23.37;;;17.20;;
17606;SDS011;8922;52.240;20.980;2022-10-26T04:26:52;23.77;;;17.17;;
17606;SDS011;8922;52.240;20.980;2022-10-26T04:29:19;21.90;;;16.17;;
17606;SDS011;8922;52.240;20.980;2022-10-26T04:31:47;23.73;;;17.47;;
17606;SDS011;8922;52.240;20.980;2022-10-26T04:34:14;25.33;;;18.17;;
17606;SDS011;8922;52.240;20.980;2022-10-26T04:36:41;23.73;;;18.23;;
17606;SDS011;8922;52.240;20.980;2022-10-26T04:39:07;21.37;;;16.53;;
17606;SDS011;8922;52.240;20.980;2022-10-26T04:41:34;24.77;;;17.13;;
17606;SDS011;8922;52.240;20.980;2022-10-26T04:44:01;20.73;;;17.33;;
17606;SDS011;8922;52.240;20.980;2022-10-26T04:46:28;22.77;;;16.63;;
17606;SDS011;8922;52.240;20.980;2022-10-26T04:48:56;24.57;;;17.73;;
17606;SDS011;8922;52.240;20.980;2022-10-26T04:51:22;22.47;;;16.40;;
17606;SDS011;8922;52.240;20.980;2022-10-26T04:53:49;22.57;;;16.97;;
17606;SDS011;8922;52.240;20.980;2022-10-26T04:56:18;22.47;;;16.43;;
17606;SDS011;8922;52.240;20.980;2022-10-26T04:58:45;22.07;;;15.93;;
17606;SDS011;8922;52.240;20.980;2022-10-26T05:01:12;19.33;;;15.90;;
17606;SDS011;8922;52.240;20.980;2022-10-26T05:03:39;22.33;;;16.87;;
17606;SDS011;8922;52.240;20.980;2022-10-26T05:06:07;24.03;;;17.67;;
17606;SDS011;8922;52.240;20.980;2022-10-26T05:08:34;23.40;;;17.80;;
17606;SDS011;8922;52.240;20.980;2022-10-26T05:11:01;24.00;;;17.33;;
17606;SDS011;8922;52.240;20.980;2022-10-26T05:13:27;22.20;;;17.60;;
17606;SDS011;8922;52.240;20.980;2022-10-26T05:15:54;23.50;;;17.80;;
17606;SDS011;8922;52.240;20.980;2022-10-26T05:18:21;27.20;;;17.83;;
17606;SDS011;8922;52.240;20.980;2022-10-26T05:20:50;22.07;;;18.10;;
17606;SDS011;8922;52.240;20.980;2022-10-26T05:23:19;22.17;;;18.20;;
17606;SDS011;8922;52.240;20.980;2022-10-26T05:25:46;26.03;;;18.00;;
17606;SDS011;8922;52.240;20.980;2022-10-26T05:28:14;20.23;;;16.93;;
17606;SDS011;8922;52.240;20.980;2022-10-26T05:30:41;25.20;;;17.67;;
17606;SDS011;8922;52.240;20.980;2022-10-26T05:33:11;23.90;;;17.13;;
17606;SDS011;8922;52.240;20.980;2022-10-26T05:35:38;24.77;;;18.03;;
17606;SDS011;8922;52.240;20.980;2022-10-26T05:38:06;26.33;;;17.30;;
17606;SDS011;8922;52.240;20.980;2022-10-26T05:40:36;22.17;;;17.23;;
17606;SDS011;8922;52.240;20.980;2022-10-26T05:43:03;23.03;;;17.27;;
17606;SDS011;8922;52.240;20.980;2022-10-26T05:45:30;25.40;;;19.73;;
17606;SDS011;8922;52.240;20.980;2022-10-26T05:47:56;22.23;;;17.73;;
17606;SDS011;8922;52.240;20.980;2022-10-26T05:50:23;21.87;;;15.87;;
17606;SDS011;8922;52.240;20.980;2022-10-26T05:52:50;21.17;;;15.77;;
17606;SDS011;8922;52.240;20.980;2022-10-26T05:55:17;20.20;;;15.13;;
17606;SDS011;8922;52.240;20.980;2022-10-26T05:57:46;24.10;;;15.57;;
17606;SDS011;8922;52.240;20.980;2022-10-26T06:00:17;19.90;;;15.17;;
17606;SDS011;8922;52.240;20.980;2022-10-26T06:02:53;24.13;;;15.23;;
17606;SDS011;8922;52.240;20.980;2022-10-26T06:05:31;19.00;;;14.27;;
17606;SDS011;8922;52.240;20.980;2022-10-26T06:08:05;22.73;;;14.30;;
17606;SDS011;8922;52.240;20.980;2022-10-26T06:10:35;18.07;;;13.60;;
17606;SDS011;8922;52.240;20.980;2022-10-26T06:13:04;20.70;;;12.90;;
17606;SDS011;8922;52.240;20.980;2022-10-26T06:15:31;22.87;;;13.70;;
17606;SDS011;8922;52.240;20.980;2022-10-26T06:18:07;22.43;;;14.23;;
17606;SDS011;8922;52.240;20.980;2022-10-26T06:20:43;17.63;;;13.93;;
17606;SDS011;8922;52.240;20.980;2022-10-26T06:23:19;16.33;;;12.90;;
17606;SDS011;8922;52.240;20.980;2022-10-26T06:26:04;18.27;;;12.70;;
17606;SDS011;8922;52.240;20.980;2022-10-26T06:28:42;19.17;;;13.13;;
17606;SDS011;8922;52.240;20.980;2022-10-26T06:31:19;19.07;;;12.43;;
17606;SDS011;8922;52.240;20.980;2022-10-26T06:33:45;21.30;;;13.07;;
17606;SDS011;8922;52.240;20.980;2022-10-26T06:36:16;22.17;;;16.23;;
17606;SDS011;8922;52.240;20.980;2022-10-26T06:38:47;20.37;;;12.93;;
17606;SDS011;8922;52.240;20.980;2022-10-26T06:41:15;19.60;;;13.00;;
17606;SDS011;8922;52.240;20.980;2022-10-26T06:43:47;16.40;;;12.43;;
17606;SDS011;8922;52.240;20.980;2022-10-26T06:46:20;19.23;;;12.33;;
17606;SDS011;8922;52.240;20.980;2022-10-26T06:48:59;20.50;;;12.63;;
17606;SDS011;8922;52.240;20.980;2022-10-26T06:51:32;19.53;;;12.87;;
17606;SDS011;8922;52.240;20.980;2022-10-26T06:54:07;19.97;;;13.47;;
17606;SDS011;8922;52.240;20.980;2022-10-26T06:56:41;18.03;;;12.20;;
17606;SDS011;8922;52.240;20.980;2022-10-26T06:59:14;15.27;;;10.83;;
17606;SDS011;8922;52.240;20.980;2022-10-26T07:01:47;17.30;;;11.73;;
17606;SDS011;8922;52.240;20.980;2022-10-26T07:04:14;15.30;;;11.37;;
17606;SDS011;8922;52.240;20.980;2022-10-26T07:06:40;16.90;;;12.27;;
17606;SDS011;8922;52.240;20.980;2022-10-26T07:09:07;15.13;;;11.27;;
17606;SDS011;8922;52.240;20.980;2022-10-26T07:11:34;18.87;;;12.63;;
17606;SDS011;8922;52.240;20.980;2022-10-26T07:14:01;19.30;;;12.03;;
17606;SDS011;8922;52.240;20.980;2022-10-26T07:16:29;19.00;;;13.00;;
17606;SDS011;8922;52.240;20.980;2022-10-26T07:18:56;21.27;;;13.07;;
17606;SDS011;8922;52.240;20.980;2022-10-26T07:21:23;17.57;;;11.70;;
17606;SDS011;8922;52.240;20.980;2022-10-26T07:23:49;17.90;;;12.67;;
17606;SDS011;8922;52.240;20.980;2022-10-26T07:26:19;19.37;;;12.47;;
17606;SDS011;8922;52.240;20.980;2022-10-26T07:28:47;18.53;;;11.97;;
17606;SDS011;8922;52.240;20.980;2022-10-26T07:31:14;20.07;;;13.27;;
17606;SDS011;8922;52.240;20.980;2022-10-26T07:33:42;18.33;;;11.63;;
17606;SDS011;8922;52.240;20.980;2022-10-26T07:36:09;22.37;;;13.03;;
17606;SDS011;8922;52.240;20.980;2022-10-26T07:38:36;20.33;;;13.87;;
17606;SDS011;8922;52.240;20.980;2022-10-26T07:41:03;17.60;;;12.63;;
17606;SDS011;8922;52.240;20.980;2022-10-26T07:43:31;19.77;;;13.47;;
17606;SDS011;8922;52.240;20.980;2022-10-26T07:45:57;16.60;;;11.30;;
17606;SDS011;8922;52.240;20.980;2022-10-26T07:48:24;19.47;;;12.23;;
17606;SDS011;8922;52.240;20.980;2022-10-26T07:50:52;17.63;;;11.90;;
17606;SDS011;8922;52.240;20.980;2022-10-26T07:53:19;20.70;;;13.23;;
17606;SDS011;8922;52.240;20.980;2022-10-26T07:55:51;21.07;;;13.27;;
17606;SDS011;8922;52.240;20.980;2022-10-26T07:58:18;19.17;;;12.60;;
17606;SDS011;8922;52.240;20.980;2022-10-26T08:00:47;18.80;;;12.67;;
17606;SDS011;8922;52.240;20.980;2022-10-26T08:03:14;16.87;;;12.40;;
17606;SDS011;8922;52.240;20.980;2022-10-26T08:05:41;16.17;;;12.47;;
17606;SDS011;8922;52.240;20.980;2022-10-26T08:08:11;18.20;;;12.63;;
17606;SDS011;8922;52.240;20.980;2022-10-26T08:10:41;15.90;;;11.63;;
17606;SDS011;8922;52.240;20.980;2022-10-26T08:13:07;13.43;;;10.37;;
17606;SDS011;8922;52.240;20.980;2022-10-26T08:15:34;14.97;;;10.07;;
17606;SDS011;8922;52.240;20.980;2022-10-26T08:18:02;13.17;;;9.73;;
17606;SDS011;8922;52.240;20.980;2022-10-26T08:20:29;16.00;;;10.00;;
17606;SDS011;8922;52.240;20.980;2022-10-26T08:22:56;22.73;;;10.43;;
17606;SDS011;8922;52.240;20.980;2022-10-26T08:25:24;14.53;;;10.50;;
17606;SDS011;8922;52.240;20.980;2022-10-26T08:27:51;13.80;;;10.53;;
17606;SDS011;8922;52.240;20.980;2022-10-26T08:30:18;14.17;;;9.97;;
17606;SDS011;8922;52.240;20.980;2022-10-26T08:32:45;14.63;;;10.77;;
17606;SDS011;8922;52.240;20.980;2022-10-26T08:35:12;14.93;;;10.03;;
17606;SDS011;8922;52.240;20.980;2022-10-26T08:37:39;14.33;;;9.70;;
17606;SDS011;8922;52.240;20.980;2022-10-26T08:40:08;14.80;;;10.43;;
17606;SDS011;8922;52.240;20.980;2022-10-26T08:42:43;17.40;;;10.73;;
17606;SDS011;8922;52.240;20.980;2022-10-26T08:45:16;19.10;;;10.63;;
17606;SDS011;8922;52.240;20.980;2022-10-26T08:47:50;13.27;;;9.77;;
17606;SDS011;8922;52.240;20.980;2022-10-26T08:50:23;16.93;;;11.17;;
17606;SDS011;8922;52.240;20.980;2022-10-26T08:52:54;15.73;;;11.00;;
17606;SDS011;8922;52.240;20.980;2022-10-26T08:55:30;17.37;;;12.20;;
17606;SDS011;8922;52.240;20.980;2022-10-26T08:58:05;15.80;;;11.90;;
17606;SDS011;8922;52.240;20.980;2022-10-26T09:00:39;14.40;;;11.00;;
17606;SDS011;8922;52.240;20.980;2022-10-26T09:03:10;15.87;;;11.13;;
17606;SDS011;8922;52.240;20.980;2022-10-26T09:05:42;14.30;;;10.93;;
17606;SDS011;8922;52.240;20.980;2022-10-26T09:08:20;16.73;;;12.07;;
17606;SDS011;8922;52.240;20.980;2022-10-26T09:10:56;18.23;;;11.60;;
17606;SDS011;8922;52.240;20.980;2022-10-26T09:13:36;19.10;;;13.07;;
17606;SDS011;8922;52.240;20.980;2022-10-26T09:16:18;18.73;;;12.87;;
17606;SDS011;8922;52.240;20.980;2022-10-26T09:18:53;18.83;;;13.37;;
17606;SDS011;8922;52.240;20.980;2022-10-26T09:21:29;18.57;;;12.47;;
17606;SDS011;8922;52.240;20.980;2022-10-26T09:24:05;15.07;;;10.73;;
17606;SDS011;8922;52.240;20.980;2022-10-26T09:26:38;14.20;;;10.77;;
17606;SDS011;8922;52.240;20.980;2022-10-26T09:29:19;15.27;;;10.83;;
17606;SDS011;8922;52.240;20.980;2022-10-26T09:31:50;16.13;;;11.83;;
17606;SDS011;8922;52.240;20.980;2022-10-26T09:34:20;16.63;;;11.30;;
17606;SDS011;8922;52.240;20.980;2022-10-26T09:36:52;13.60;;;11.07;;
17606;SDS011;8922;52.240;20.980;2022-10-26T09:39:22;18.47;;;12.33;;
17606;SDS011;8922;52.240;20.980;2022-10-26T09:41:55;15.33;;;11.50;;
17606;SDS011;8922;52.240;20.980;2022-10-26T09:44:26;17.57;;;12.13;;
17606;SDS011;8922;52.240;20.980;2022-10-26T09:46:57;19.30;;;12.40;;
17606;SDS011;8922;52.240;20.980;2022-10-26T09:49:33;14.73;;;11.07;;
17606;SDS011;8922;52.240;20.980;2022-10-26T09:52:06;14.60;;;10.53;;
17606;SDS011;8922;52.240;20.980;2022-10-26T09:54:32;16.80;;;11.20;;
17606;SDS011;8922;52.240;20.980;2022-10-26T09:57:00;14.93;;;10.60;;
17606;SDS011;8922;52.240;20.980;2022-10-26T09:59:29;18.43;;;12.37;;
17606;SDS011;8922;52.240;20.980;2022-10-26T10:02:02;14.87;;;10.53;;
17606;SDS011;8922;52.240;20.980;2022-10-26T10:07:46;15.27;;;10.43;;
17606;SDS011;8922;52.240;20.980;2022-10-26T10:10:15;16.80;;;11.83;;
17606;SDS011;8922;52.240;20.980;2022-10-26T10:12:43;15.70;;;11.53;;
17606;SDS011;8922;52.240;20.980;2022-10-26T10:15:17;15.40;;;10.70;;
17606;SDS011;8922;52.240;20.980;2022-10-26T10:17:47;19.67;;;11.00;;
17606;SDS011;8922;52.240;20.980;2022-10-26T10:20:18;16.23;;;10.57;;
17606;SDS011;8922;52.240;20.980;2022-10-26T10:22:53;17.37;;;10.37;;
17606;SDS011;8922;52.240;20.980;2022-10-26T10:25:22;18.73;;;11.10;;
17606;SDS011;8922;52.240;20.980;2022-10-26T10:27:53;16.10;;;10.00;;
17606;SDS011;8922;52.240;20.980;2022-10-26T10:30:22;16.03;;;10.77;;
17606;SDS011;8922;52.240;20.980;2022-10-26T10:33:03;18.03;;;13.83;;
17606;SDS011;8922;52.240;20.980;2022-10-26T10:35:32;14.93;;;11.13;;
17606;SDS011;8922;52.240;20.980;2022-10-26T10:37:59;17.07;;;11.07;;
17606;SDS011;8922;52.240;20.980;2022-10-26T10:40:26;15.87;;;10.87;;
17606;SDS011;8922;52.240;20.980;2022-10-26T10:43:01;13.77;;;10.57;;
17606;SDS011;8922;52.240;20.980;2022-10-26T10:45:31;14.07;;;10.53;;
17606;SDS011;8922;52.240;20.980;2022-10-26T10:48:00;15.40;;;10.83;;
17606;SDS011;8922;52.240;20.980;2022-10-26T10:50:29;15.70;;;10.83;;
17606;SDS011;8922;52.240;20.980;2022-10-26T10:53:14;17.70;;;10.47;;
17606;SDS011;8922;52.240;20.980;2022-10-26T10:55:45;14.87;;;10.43;;
17606;SDS011;8922;52.240;20.980;2022-10-26T10:58:22;17.80;;;10.87;;
17606;SDS011;8922;52.240;20.980;2022-10-26T11:00:56;13.30;;;10.40;;
17606;SDS011;8922;52.240;20.980;2022-10-26T11:03:24;15.30;;;10.67;;
17606;SDS011;8922;52.240;20.980;2022-10-26T11:06:06;18.03;;;11.30;;
17606;SDS011;8922;52.240;20.980;2022-10-26T11:08:40;14.97;;;11.83;;
17606;SDS011;8922;52.240;20.980;2022-10-26T11:11:12;16.20;;;12.07;;
17606;SDS011;8922;52.240;20.980;2022-10-26T11:13:43;18.00;;;12.03;;
17606;SDS011;8922;52.240;20.980;2022-10-26T11:16:19;15.30;;;11.73;;
17606;SDS011;8922;52.240;20.980;2022-10-26T11:18:49;14.47;;;12.07;;
17606;SDS011;8922;52.240;20.980;2022-10-26T11:21:22;17.73;;;12.40;;
17606;SDS011;8922;52.240;20.980;2022-10-26T11:23:54;17.37;;;12.10;;
17606;SDS011;8922;52.240;20.980;2022-10-26T11:26:28;17.07;;;12.33;;
17606;SDS011;8922;52.240;20.980;2022-10-26T11:29:00;17.93;;;12.17;;
17606;SDS011;8922;52.240;20.980;2022-10-26T11:31:36;17.13;;;12.70;;
17606;SDS011;8922;52.240;20.980;2022-10-26T11:34:12;23.13;;;13.57;;
17606;SDS011;8922;52.240;20.980;2022-10-26T11:36:45;19.47;;;12.97;;
17606;SDS011;8922;52.240;20.980;2022-10-26T11:39:18;15.07;;;12.67;;
17606;SDS011;8922;52.240;20.980;2022-10-26T11:41:51;17.60;;;11.73;;
17606;SDS011;8922;52.240;20.980;2022-10-26T11:44:25;17.13;;;12.30;;
17606;SDS011;8922;52.240;20.980;2022-10-26T11:47:02;16.50;;;10.97;;
17606;SDS011;8922;52.240;20.980;2022-10-26T11:49:37;19.37;;;12.40;;
17606;SDS011;8922;52.240;20.980;2022-10-26T11:52:08;15.57;;;12.13;;
17606;SDS011;8922;52.240;20.980;2022-10-26T11:54:42;14.67;;;11.57;;
17606;SDS011;8922;52.240;20.980;2022-10-26T11:57:13;17.07;;;11.37;;
17606;SDS011;8922;52.240;20.980;2022-10-26T11:59:42;16.00;;;12.07;;
17606;SDS011;8922;52.240;20.980;2022-10-26T12:02:14;17.80;;;13.33;;
17606;SDS011;8922;52.240;20.980;2022-10-26T12:04:45;16.50;;;12.97;;
17606;SDS011;8922;52.240;20.980;2022-10-26T12:07:15;17.17;;;12.07;;
17606;SDS011;8922;52.240;20.980;2022-10-26T12:09:48;18.57;;;12.00;;
17606;SDS011;8922;52.240;20.980;2022-10-26T12:12:18;15.43;;;10.33;;
17606;SDS011;8922;52.240;20.980;2022-10-26T12:14:50;16.17;;;10.60;;
17606;SDS011;8922;52.240;20.980;2022-10-26T12:17:28;16.43;;;10.10;;
17606;SDS011;8922;52.240;20.980;2022-10-26T12:20:03;11.97;;;9.53;;
17606;SDS011;8922;52.240;20.980;2022-10-26T12:22:41;13.60;;;9.07;;
17606;SDS011;8922;52.240;20.980;2022-10-26T12:25:17;17.30;;;10.60;;
17606;SDS011;8922;52.240;20.980;2022-10-26T12:27:50;13.30;;;9.50;;
17606;SDS011;8922;52.240;20.980;2022-10-26T12:30:25;14.37;;;9.37;;
17606;SDS011;8922;52.240;20.980;2022-10-26T12:32:56;15.57;;;9.17;;
17606;SDS011;8922;52.240;20.980;2022-10-26T12:41:21;15.67;;;10.50;;
17606;SDS011;8922;52.240;20.980;2022-10-26T12:43:51;15.07;;;8.60;;
17606;SDS011;8922;52.240;20.980;2022-10-26T13:01:24;15.93;;;9.17;;
17606;SDS011;8922;52.240;20.980;2022-10-26T13:04:14;13.57;;;9.17;;
17606;SDS011;8922;52.240;20.980;2022-10-26T13:07:12;14.13;;;8.87;;
17606;SDS011;8922;52.240;20.980;2022-10-26T13:09:52;14.57;;;9.53;;
17606;SDS011;8922;52.240;20.980;2022-10-26T13:12:23;13.87;;;9.33;;
17606;SDS011;8922;52.240;20.980;2022-10-26T13:14:54;15.63;;;11.00;;
17606;SDS011;8922;52.240;20.980;2022-10-26T13:17:24;16.30;;;10.07;;
17606;SDS011;8922;52.240;20.980;2022-10-26T13:19:54;13.40;;;8.87;;
17606;SDS011;8922;52.240;20.980;2022-10-26T13:22:24;17.37;;;9.57;;
17606;SDS011;8922;52.240;20.980;2022-10-26T13:24:53;13.03;;;9.23;;
17606;SDS011;8922;52.240;20.980;2022-10-26T13:30:16;14.67;;;9.13;;
17606;SDS011;8922;52.240;20.980;2022-10-26T13:32:48;14.40;;;8.23;;
17606;SDS011;8922;52.240;20.980;2022-10-26T13:35:17;14.77;;;8.93;;
17606;SDS011;8922;52.240;20.980;2022-10-26T13:37:46;17.10;;;9.00;;
17606;SDS011;8922;52.240;20.980;2022-10-26T13:40:18;15.80;;;9.33;;
17606;SDS011;8922;52.240;20.980;2022-10-26T13:42:46;13.47;;;8.40;;
17606;SDS011;8922;52.240;20.980;2022-10-26T13:45:19;14.37;;;8.73;;
17606;SDS011;8922;52.240;20.980;2022-10-26T13:47:51;13.03;;;9.07;;
17606;SDS011;8922;52.240;20.980;2022-10-26T13:50:23;10.93;;;8.67;;
17606;SDS011;8922;52.240;20.980;2022-10-26T13:52:52;12.87;;;9.20;;
17606;SDS011;8922;52.240;20.980;2022-10-26T13:55:23;15.90;;;10.43;;
17606;SDS011;8922;52.240;20.980;2022-10-26T13:58:00;14.60;;;9.10;;
17606;SDS011;8922;52.240;20.980;2022-10-26T14:00:36;14.33;;;9.10;;
17606;SDS011;8922;52.240;20.980;2022-10-26T14:03:12;13.70;;;8.33;;
17606;SDS011;8922;52.240;20.980;2022-10-26T14:05:40;12.93;;;8.53;;
17606;SDS011;8922;52.240;20.980;2022-10-26T14:08:10;14.40;;;8.27;;
17606;SDS011;8922;52.240;20.980;2022-10-26T14:10:45;11.20;;;8.03;;
17606;SDS011;8922;52.240;20.980;2022-10-26T14:13:17;11.80;;;8.57;;
17606;SDS011;8922;52.240;20.980;2022-10-26T14:15:48;13.73;;;7.90;;
17606;SDS011;8922;52.240;20.980;2022-10-26T14:18:15;11.67;;;7.97;;
17606;SDS011;8922;52.240;20.980;2022-10-26T14:20:48;10.77;;;6.93;;
17606;SDS011;8922;52.240;20.980;2022-10-26T14:23:27;11.50;;;7.47;;
17606;SDS011;8922;52.240;20.980;2022-10-26T14:25:55;12.07;;;8.23;;
17606;SDS011;8922;52.240;20.980;2022-10-26T14:28:23;13.13;;;7.83;;
17606;SDS011;8922;52.240;20.980;2022-10-26T14:30:51;11.90;;;7.80;;
17606;SDS011;8922;52.240;20.980;2022-10-26T14:33:18;10.43;;;8.13;;
17606;SDS011;8922;52.240;20.980;2022-10-26T14:35:45;11.23;;;8.53;;
17606;SDS011;8922;52.240;20.980;2022-10-26T14:38:15;12.70;;;8.00;;
17606;SDS011;8922;52.240;20.980;2022-10-26T14:40:44;12.00;;;7.90;;
17606;SDS011;8922;52.240;20.980;2022-10-26T14:43:15;10.50;;;7.67;;
17606;SDS011;8922;52.240;20.980;2022-10-26T14:45:47;12.03;;;8.37;;
17606;SDS011;8922;52.240;20.980;2022-10-26T14:48:22;14.00;;;8.30;;
17606;SDS011;8922;52.240;20.980;2022-10-26T14:51:01;15.13;;;8.17;;
17606;SDS011;8922;52.240;20.980;2022-10-26T14:53:34;13.47;;;8.27;;
17606;SDS011;8922;52.240;20.980;2022-10-26T14:56:03;14.40;;;8.53;;
17606;SDS011;8922;52.240;20.980;2022-10-26T14:58:43;12.57;;;8.30;;
17606;SDS011;8922;52.240;20.980;2022-10-26T15:01:13;11.37;;;8.00;;
17606;SDS011;8922;52.240;20.980;2022-10-26T15:04:01;16.77;;;9.07;;
17606;SDS011;8922;52.240;20.980;2022-10-26T15:06:30;11.37;;;7.90;;
17606;SDS011;8922;52.240;20.980;2022-10-26T15:08:59;16.60;;;10.00;;
17606;SDS011;8922;52.240;20.980;2022-10-26T15:11:29;17.43;;;9.30;;
17606;SDS011;8922;52.240;20.980;2022-10-26T15:13:59;14.53;;;9.70;;
17606;SDS011;8922;52.240;20.980;2022-10-26T15:16:27;19.23;;;11.60;;
17606;SDS011;8922;52.240;20.980;2022-10-26T15:18:55;14.00;;;9.10;;
17606;SDS011;8922;52.240;20.980;2022-10-26T15:21:26;12.53;;;8.57;;